createdAt,value
2019-02-27T00:01:28.090Z,10.50
2019-02-27T00:04:02.091Z,10.50
2019-02-27T00:06:29.387Z,10.40
2019-02-27T00:09:00.537Z,10.40
2019-02-27T00:11:32.568Z,10.30
2019-02-27T00:14:02.367Z,10.30
2019-02-27T00:16:33.395Z,10.20
2019-02-27T00:19:03.367Z,10.20
2019-02-27T00:21:33.150Z,10.20
2019-02-27T00:24:03.020Z,10.20
2019-02-27T00:26:32.808Z,10.20
2019-02-27T00:29:02.608Z,10.20
2019-02-27T00:31:33.368Z,10.10
2019-02-27T00:34:03.143Z,10.10
2019-02-27T00:36:32.948Z,10.10
2019-02-27T00:39:02.749Z,10.00
2019-02-27T00:41:34.160Z,10.00
2019-02-27T00:44:03.927Z,9.90
2019-02-27T00:46:33.710Z,9.90
2019-02-27T00:49:03.475Z,9.90
2019-02-27T00:51:34.250Z,9.80
2019-02-27T00:54:04.114Z,9.90
2019-02-27T00:56:33.892Z,9.90
2019-02-27T00:59:03.655Z,9.90
2019-02-27T01:01:33.435Z,9.90
2019-02-27T01:04:03.374Z,9.90
2019-02-27T01:06:33.247Z,9.90
2019-02-27T01:09:03.880Z,9.90
2019-02-27T01:11:36.258Z,9.90
2019-02-27T01:14:06.208Z,9.90
2019-02-27T01:16:35.994Z,9.90
2019-02-27T01:19:05.769Z,9.80
2019-02-27T01:21:35.544Z,9.80
2019-02-27T01:24:05.398Z,9.80
2019-02-27T01:26:36.259Z,9.70
2019-02-27T01:29:06.026Z,9.80
2019-02-27T01:31:35.811Z,9.70
2019-02-27T01:34:05.661Z,9.60
2019-02-27T01:36:35.457Z,9.70
2019-02-27T01:39:08.918Z,9.70
2019-02-27T01:41:39.195Z,9.70
2019-02-27T01:44:11.180Z,9.70
2019-02-27T01:46:40.463Z,9.70
2019-02-27T01:49:11.339Z,9.70
2019-02-27T01:51:41.105Z,9.60
2019-02-27T01:54:12.267Z,9.60
2019-02-27T01:56:42.359Z,9.60
2019-02-27T01:59:14.056Z,9.60
2019-02-27T02:01:44.697Z,9.50
2019-02-27T02:04:20.006Z,9.50
2019-02-27T02:06:47.043Z,9.50
2019-02-27T02:09:33.469Z,9.50
2019-02-27T02:12:10.071Z,9.40
2019-02-27T02:14:45.855Z,9.40
2019-02-27T02:17:52.166Z,9.40
2019-02-27T02:20:44.535Z,9.40
2019-02-27T02:23:17.396Z,9.30
2019-02-27T02:26:22.056Z,9.20
2019-02-27T02:29:00.440Z,9.20
2019-02-27T02:31:43.021Z,9.20
2019-02-27T02:34:30.368Z,9.10
2019-02-27T02:37:19.761Z,9.10
2019-02-27T02:39:55.512Z,9.10
2019-02-27T02:42:33.907Z,9.00
2019-02-27T02:45:21.147Z,9.00
2019-02-27T02:47:56.927Z,9.00
2019-02-27T02:50:41.996Z,9.00
2019-02-27T02:53:25.398Z,9.00
2019-02-27T02:55:58.955Z,9.00
2019-02-27T02:58:52.971Z,9.00
2019-02-27T03:01:31.808Z,8.90
2019-02-27T03:04:13.655Z,8.90
2019-02-27T03:06:58.341Z,8.90
2019-02-27T03:09:47.929Z,8.80
2019-02-27T03:12:30.945Z,8.80
2019-02-27T03:15:30.177Z,8.80
2019-02-27T03:18:12.151Z,8.80
2019-02-27T03:20:52.399Z,8.80
2019-02-27T03:23:32.448Z,8.90
2019-02-27T03:26:17.788Z,8.80
2019-02-27T03:29:05.709Z,8.80
2019-02-27T03:31:57.480Z,8.70
2019-02-27T03:34:47.017Z,8.70
2019-02-27T03:37:22.853Z,8.60
2019-02-27T03:40:17.142Z,8.60
2019-02-27T03:43:10.411Z,8.60
2019-02-27T03:45:48.131Z,8.50
2019-02-27T03:48:32.803Z,8.50
2019-02-27T03:51:08.394Z,8.50
2019-02-27T03:53:47.206Z,8.50
2019-02-27T03:56:53.109Z,8.40
2019-02-27T03:59:42.458Z,8.50
2019-02-27T04:02:21.024Z,8.50
2019-02-27T04:05:19.961Z,8.60
2019-02-27T04:08:08.267Z,8.60
2019-02-27T04:10:36.293Z,8.60
2019-02-27T04:13:06.086Z,8.60
2019-02-27T04:15:36.147Z,8.60
2019-02-27T04:18:04.873Z,8.50
2019-02-27T04:20:34.663Z,8.50
2019-02-27T04:23:04.460Z,8.40
2019-02-27T04:25:34.251Z,8.40
2019-02-27T04:28:04.028Z,8.40
2019-02-27T04:30:33.794Z,8.40
2019-02-27T04:33:03.564Z,8.40
2019-02-27T04:35:34.315Z,8.40
2019-02-27T04:38:04.375Z,8.40
2019-02-27T04:40:34.158Z,8.40
2019-02-27T04:43:03.941Z,8.40
2019-02-27T04:45:33.708Z,8.30
2019-02-27T04:48:03.487Z,8.30
2019-02-27T04:50:33.266Z,8.20
2019-02-27T04:53:03.038Z,8.30
2019-02-27T04:55:32.821Z,8.20
2019-02-27T04:58:02.601Z,8.20
2019-02-27T05:00:32.380Z,8.20
2019-02-27T05:03:02.148Z,8.30
2019-02-27T05:05:31.939Z,8.20
2019-02-27T05:08:01.707Z,8.30
2019-02-27T05:10:31.503Z,8.20
2019-02-27T05:13:01.266Z,8.20
2019-02-27T05:15:32.214Z,8.20
2019-02-27T05:18:01.987Z,8.20
2019-02-27T05:20:32.676Z,8.10
2019-02-27T05:23:02.453Z,8.10
2019-02-27T05:25:32.240Z,8.10
2019-02-27T05:28:02.087Z,8.00
2019-02-27T05:30:31.979Z,8.10
2019-02-27T05:33:02.788Z,8.10
2019-02-27T05:35:32.813Z,8.10
2019-02-27T05:38:02.656Z,8.10
2019-02-27T05:40:32.432Z,8.10
2019-02-27T05:43:02.207Z,8.10
2019-02-27T05:45:32.004Z,8.10
2019-02-27T05:48:01.793Z,8.10
2019-02-27T05:50:34.037Z,8.10
2019-02-27T05:53:03.048Z,8.10
2019-02-27T05:55:32.823Z,8.10
2019-02-27T05:58:02.608Z,8.00
2019-02-27T06:00:34.014Z,8.00
2019-02-27T06:03:03.803Z,7.90
2019-02-27T06:05:33.681Z,7.90
2019-02-27T06:08:05.063Z,7.80
2019-02-27T06:10:34.851Z,7.90
2019-02-27T06:13:04.638Z,7.90
2019-02-27T06:15:34.437Z,7.90
2019-02-27T06:18:04.199Z,7.90
2019-02-27T06:20:33.979Z,7.90
2019-02-27T06:23:04.413Z,8.00
2019-02-27T06:25:34.919Z,8.00
2019-02-27T06:28:04.693Z,8.00
2019-02-27T06:30:34.483Z,8.00
2019-02-27T06:33:04.255Z,8.00
2019-02-27T06:35:34.365Z,8.00
2019-02-27T06:38:05.158Z,8.00
2019-02-27T06:40:34.955Z,8.10
2019-02-27T06:43:04.791Z,8.10
2019-02-27T06:45:34.593Z,8.10
2019-02-27T06:48:09.489Z,8.10
2019-02-27T06:50:36.035Z,8.10
2019-02-27T06:53:05.815Z,8.10
2019-02-27T06:55:35.600Z,8.10
2019-02-27T06:58:05.382Z,8.20
2019-02-27T07:00:36.765Z,8.20
2019-02-27T07:03:06.616Z,8.20
2019-02-27T07:05:36.408Z,8.30
2019-02-27T07:08:06.193Z,8.30
2019-02-27T07:10:35.993Z,8.40
2019-02-27T07:13:05.837Z,8.40
2019-02-27T07:15:35.623Z,8.40
2019-02-27T07:18:06.216Z,8.50
2019-02-27T07:20:37.715Z,8.60
2019-02-27T07:23:07.563Z,8.70
2019-02-27T07:25:41.983Z,8.80
2019-02-27T07:28:09.266Z,8.80
2019-02-27T07:30:39.751Z,8.80
2019-02-27T07:33:10.683Z,8.90
2019-02-27T07:35:40.455Z,8.90
2019-02-27T07:38:10.248Z,8.90
2019-02-27T07:40:42.738Z,8.80
2019-02-27T07:43:11.517Z,8.80
2019-02-27T07:45:42.696Z,9.00
2019-02-27T07:48:12.806Z,9.00
2019-02-27T07:50:42.581Z,9.00
2019-02-27T07:53:12.372Z,9.00
2019-02-27T07:55:42.141Z,9.10
2019-02-27T07:58:12.998Z,9.10
2019-02-27T08:00:42.919Z,9.20
2019-02-27T08:03:13.135Z,9.30
2019-02-27T08:05:43.004Z,9.20
2019-02-27T08:08:12.791Z,9.30
2019-02-27T08:10:42.567Z,9.40
2019-02-27T08:13:12.351Z,9.50
2019-02-27T08:15:42.128Z,9.50
2019-02-27T08:18:11.995Z,9.60
2019-02-27T08:20:41.871Z,9.70
2019-02-27T08:23:11.652Z,9.80
2019-02-27T08:25:41.439Z,9.90
2019-02-27T08:28:11.227Z,10.00
2019-02-27T08:30:41.007Z,10.10
2019-02-27T08:33:10.811Z,10.20
2019-02-27T08:35:40.660Z,10.20
2019-02-27T08:38:10.475Z,10.30
2019-02-27T08:40:40.255Z,10.40
2019-02-27T08:43:10.923Z,10.50
2019-02-27T08:45:40.912Z,10.60
2019-02-27T08:48:10.695Z,10.80
2019-02-27T08:50:40.491Z,10.90
2019-02-27T08:53:10.271Z,11.00
2019-02-27T08:55:40.082Z,11.00
2019-02-27T08:58:09.868Z,11.10
2019-02-27T09:00:40.183Z,11.10
2019-02-27T09:03:19.798Z,11.10
2019-02-27T09:05:41.799Z,11.30
2019-02-27T09:08:11.587Z,11.30
2019-02-27T09:10:41.383Z,11.40
2019-02-27T09:13:11.177Z,11.40
2019-02-27T09:15:42.043Z,11.50
2019-02-27T09:18:11.816Z,11.50
2019-02-27T09:20:41.613Z,11.50
2019-02-27T09:23:11.396Z,11.70
2019-02-27T09:25:42.322Z,11.80
2019-02-27T09:28:12.268Z,11.90
2019-02-27T09:30:42.131Z,12.00
2019-02-27T09:33:11.989Z,12.10
2019-02-27T09:35:41.859Z,12.20
2019-02-27T09:38:11.654Z,12.30
2019-02-27T09:40:41.519Z,12.30
2019-02-27T09:43:11.719Z,12.50
2019-02-27T09:45:46.339Z,12.50
2019-02-27T09:48:14.314Z,12.70
2019-02-27T09:50:48.913Z,12.80
2019-02-27T09:53:18.887Z,12.90
2019-02-27T09:55:53.422Z,13.00
2019-02-27T09:58:20.229Z,13.10
2019-02-27T10:01:02.888Z,13.20
2019-02-27T10:03:32.858Z,13.40
2019-02-27T10:06:02.858Z,13.40
2019-02-27T10:08:32.649Z,13.50
2019-02-27T10:11:04.340Z,13.60
2019-02-27T10:13:37.519Z,13.60
2019-02-27T10:16:05.623Z,13.70
2019-02-27T10:18:35.409Z,13.80
2019-02-27T10:21:05.208Z,13.90
2019-02-27T10:23:34.994Z,14.00
2019-02-27T10:26:04.798Z,14.10
2019-02-27T10:28:38.889Z,14.10
2019-02-27T10:31:06.102Z,14.20
2019-02-27T10:33:35.885Z,14.30
2019-02-27T10:36:05.696Z,14.40
2019-02-27T10:38:40.285Z,14.50
2019-02-27T10:41:06.979Z,14.60
2019-02-27T10:43:36.767Z,14.60
2019-02-27T10:46:06.647Z,14.70
2019-02-27T10:48:36.912Z,14.80
2019-02-27T10:51:09.559Z,14.80
2019-02-27T10:53:38.309Z,14.90
2019-02-27T10:56:08.079Z,15.00
2019-02-27T10:58:37.884Z,15.10
2019-02-27T11:01:07.731Z,15.20
2019-02-27T11:03:37.603Z,15.30
2019-02-27T11:06:07.383Z,15.40
2019-02-27T11:08:37.191Z,15.50
2019-02-27T11:11:08.657Z,15.50
2019-02-27T11:13:38.691Z,15.60
2019-02-27T11:16:08.479Z,15.70
2019-02-27T11:18:38.284Z,15.80
2019-02-27T11:21:08.938Z,15.90
2019-02-27T11:23:40.904Z,15.90
2019-02-27T11:26:10.224Z,15.90
2019-02-27T11:28:40.032Z,16.00
2019-02-27T11:31:11.071Z,16.10
2019-02-27T11:33:41.655Z,16.10
2019-02-27T11:36:11.452Z,16.20
2019-02-27T11:38:41.258Z,16.30
2019-02-27T11:41:14.957Z,16.40
2019-02-27T11:43:42.549Z,16.40
2019-02-27T11:46:12.351Z,16.50
2019-02-27T11:48:42.139Z,16.60
2019-02-27T11:51:13.891Z,16.60
2019-02-27T11:53:43.422Z,16.70
2019-02-27T11:56:13.211Z,16.70
2019-02-27T11:58:42.995Z,16.80
2019-02-27T12:01:12.793Z,16.90
2019-02-27T12:03:45.701Z,16.90
2019-02-27T12:06:15.146Z,17.00
2019-02-27T12:08:44.922Z,17.00
2019-02-27T12:11:14.708Z,17.00
2019-02-27T12:13:44.502Z,17.10
2019-02-27T12:16:15.268Z,17.20
2019-02-27T12:18:45.851Z,17.30
2019-02-27T12:21:15.647Z,17.30
2019-02-27T12:23:45.432Z,17.40
2019-02-27T12:26:15.235Z,17.40
2019-02-27T12:28:45.012Z,17.50
2019-02-27T12:31:14.806Z,17.60
2019-02-27T12:33:44.596Z,17.70
2019-02-27T12:36:16.105Z,17.70
2019-02-27T12:38:46.953Z,17.80
2019-02-27T12:41:16.768Z,17.90
2019-02-27T12:43:52.175Z,18.00
2019-02-27T12:46:18.042Z,18.10
2019-02-27T12:48:47.830Z,18.20
2019-02-27T12:51:17.628Z,18.20
2019-02-27T12:53:47.428Z,18.20
2019-02-27T12:56:17.213Z,18.30
2019-02-27T12:58:47.006Z,18.30
2019-02-27T13:01:17.010Z,18.30
2019-02-27T13:03:46.964Z,18.40
2019-02-27T13:06:16.822Z,18.50
2019-02-27T13:08:46.620Z,18.50
2019-02-27T13:11:16.397Z,18.50
2019-02-27T13:13:46.251Z,18.50
2019-02-27T13:16:16.038Z,18.60
2019-02-27T13:18:46.543Z,18.60
2019-02-27T13:21:20.486Z,18.60
2019-02-27T13:23:48.745Z,18.70
2019-02-27T13:26:18.609Z,18.80
2019-02-27T13:28:48.767Z,18.80
2019-02-27T13:31:19.482Z,18.90
2019-02-27T13:33:50.334Z,18.90
2019-02-27T13:36:20.113Z,19.00
2019-02-27T13:38:52.179Z,19.00
2019-02-27T13:41:21.383Z,19.10
2019-02-27T13:43:51.275Z,19.20
2019-02-27T13:46:22.728Z,19.40
2019-02-27T13:48:52.747Z,19.50
2019-02-27T13:51:22.535Z,19.70
2019-02-27T13:53:52.342Z,19.80
2019-02-27T13:56:22.133Z,20.00
2019-02-27T13:58:51.944Z,20.10
2019-02-27T14:01:21.871Z,20.30
2019-02-27T14:03:51.673Z,20.40
2019-02-27T14:06:21.449Z,20.60
2019-02-27T14:08:51.243Z,20.60
2019-02-27T14:11:21.171Z,20.80
2019-02-27T14:13:52.017Z,21.00
2019-02-27T14:16:22.264Z,21.20
2019-02-27T14:18:54.053Z,21.60
2019-02-27T14:21:23.663Z,22.30
2019-02-27T14:23:53.480Z,22.40
2019-02-27T14:26:23.339Z,22.20
2019-02-27T14:28:55.168Z,21.80
2019-02-27T14:31:24.775Z,21.40
2019-02-27T14:33:55.040Z,21.20
2019-02-27T14:36:24.935Z,21.00
2019-02-27T14:38:56.653Z,20.80
2019-02-27T14:41:26.203Z,20.70
2019-02-27T14:43:57.675Z,20.60
2019-02-27T14:46:27.487Z,20.50
2019-02-27T14:48:57.287Z,20.50
2019-02-27T14:51:27.068Z,20.40
2019-02-27T14:53:56.870Z,20.20
2019-02-27T14:56:26.641Z,20.00
2019-02-27T14:58:56.712Z,19.90
2019-02-27T15:01:27.380Z,19.70
2019-02-27T15:04:00.350Z,19.60
2019-02-27T15:06:28.656Z,19.50
2019-02-27T15:09:02.309Z,19.40
2019-02-27T15:11:31.128Z,19.30
2019-02-27T15:14:01.026Z,19.20
2019-02-27T15:16:30.820Z,19.20
2019-02-27T15:19:00.676Z,19.10
2019-02-27T15:21:31.837Z,19.00
2019-02-27T15:24:02.157Z,18.90
2019-02-27T15:26:33.049Z,18.90
2019-02-27T15:29:03.091Z,18.80
2019-02-27T15:31:34.314Z,18.70
2019-02-27T15:34:04.168Z,18.70
2019-02-27T15:36:33.956Z,18.70
2019-02-27T15:39:04.851Z,18.60
2019-02-27T15:41:36.243Z,18.60
2019-02-27T15:44:07.087Z,18.50
2019-02-27T15:46:36.885Z,18.50
2019-02-27T15:49:06.895Z,18.40
2019-02-27T15:51:36.680Z,18.30
2019-02-27T15:54:06.469Z,18.30
2019-02-27T15:56:36.256Z,18.30
2019-02-27T15:59:08.216Z,18.20
2019-02-27T16:01:37.559Z,18.20
2019-02-27T16:04:07.347Z,18.10
2019-02-27T16:06:39.460Z,18.10
2019-02-27T16:09:10.108Z,18.00
2019-02-27T16:11:41.115Z,18.00
2019-02-27T16:14:10.917Z,17.90
2019-02-27T16:16:41.767Z,17.90
2019-02-27T16:19:11.652Z,17.80
2019-02-27T16:21:41.411Z,17.80
2019-02-27T16:24:11.212Z,17.70
2019-02-27T16:26:40.998Z,17.70
2019-02-27T16:29:10.789Z,17.60
2019-02-27T16:31:40.861Z,17.50
2019-02-27T16:34:11.450Z,17.50
2019-02-27T16:36:41.316Z,17.40
2019-02-27T16:39:11.393Z,17.30
2019-02-27T16:41:41.176Z,17.30
2019-02-27T16:44:11.224Z,17.20
2019-02-27T16:46:44.548Z,17.10
2019-02-27T16:49:12.556Z,17.10
2019-02-27T16:51:42.328Z,17.00
2019-02-27T16:54:12.153Z,17.00
2019-02-27T16:56:46.271Z,16.90
2019-02-27T16:59:13.435Z,16.80
2019-02-27T17:01:43.206Z,16.70
2019-02-27T17:04:13.008Z,16.60
2019-02-27T17:06:42.859Z,16.60
2019-02-27T17:09:13.351Z,16.60
2019-02-27T17:11:43.388Z,16.60
2019-02-27T17:14:13.184Z,16.50
2019-02-27T17:16:44.874Z,16.30
2019-02-27T17:19:14.551Z,16.20
2019-02-27T17:21:44.335Z,16.10
2019-02-27T17:24:14.137Z,16.10
2019-02-27T17:26:43.921Z,16.00
2019-02-27T17:29:13.898Z,15.90
2019-02-27T17:31:49.234Z,15.90
2019-02-27T17:34:15.292Z,15.90
2019-02-27T17:36:45.148Z,15.80
2019-02-27T17:39:14.970Z,15.80
2019-02-27T17:41:45.368Z,15.70
2019-02-27T17:44:16.314Z,15.70
2019-02-27T17:46:46.113Z,15.60
2019-02-27T17:49:15.909Z,15.50
2019-02-27T17:51:45.703Z,15.50
2019-02-27T17:54:15.501Z,15.40
2019-02-27T17:56:47.176Z,15.30
2019-02-27T17:59:16.804Z,15.30
2019-02-27T18:01:47.099Z,15.20
2019-02-27T18:04:16.987Z,15.10
2019-02-27T18:06:46.803Z,15.00
2019-02-27T18:09:16.606Z,15.00
2019-02-27T18:11:46.409Z,14.90
2019-02-27T18:14:16.200Z,14.80
2019-02-27T18:16:46.008Z,14.80
2019-02-27T18:19:17.268Z,14.70
2019-02-27T18:21:47.176Z,14.70
2019-02-27T18:24:16.958Z,14.60
2019-02-27T18:26:50.057Z,14.60
2019-02-27T18:29:18.268Z,14.50
2019-02-27T18:31:48.065Z,14.50
2019-02-27T18:34:17.856Z,14.40
2019-02-27T18:36:47.663Z,14.40
2019-02-27T18:39:17.459Z,14.30
2019-02-27T18:41:47.276Z,14.30
2019-02-27T18:44:17.069Z,14.20
2019-02-27T18:46:46.901Z,14.20
2019-02-27T18:49:18.528Z,14.10
2019-02-27T18:51:48.212Z,14.10
2019-02-27T18:54:21.712Z,14.00
2019-02-27T18:56:49.709Z,14.00
2019-02-27T18:59:19.572Z,14.00
2019-02-27T19:01:49.381Z,14.00
2019-02-27T19:04:19.325Z,13.90
2019-02-27T19:06:49.102Z,13.90
2019-02-27T19:09:18.996Z,13.90
2019-02-27T19:11:50.859Z,13.80
2019-02-27T19:14:20.439Z,13.80
2019-02-27T19:16:52.123Z,13.70
2019-02-27T19:19:21.826Z,13.70
2019-02-27T19:21:51.684Z,13.60
2019-02-27T19:24:26.726Z,13.60
2019-02-27T19:26:53.127Z,13.50
2019-02-27T19:29:22.923Z,13.50
2019-02-27T19:31:52.796Z,13.50
2019-02-27T19:34:22.591Z,13.40
2019-02-27T19:36:52.396Z,13.40
2019-02-27T19:39:22.587Z,13.40
2019-02-27T19:41:52.435Z,13.30
2019-02-27T19:44:22.251Z,13.30
2019-02-27T19:46:52.038Z,13.20
2019-02-27T19:49:21.844Z,13.20
2019-02-27T19:51:54.590Z,13.20
2019-02-27T19:54:23.228Z,13.20
2019-02-27T19:56:55.063Z,13.10
2019-02-27T19:59:25.577Z,13.10
2019-02-27T20:01:55.640Z,13.00
2019-02-27T20:04:25.484Z,13.00
2019-02-27T20:06:55.412Z,13.00
2019-02-27T20:09:25.287Z,12.90
2019-02-27T20:11:55.154Z,12.90
2019-02-27T20:14:25.040Z,12.80
2019-02-27T20:16:55.911Z,12.80
2019-02-27T20:19:28.982Z,12.70
2019-02-27T20:21:58.602Z,12.70
2019-02-27T20:24:28.548Z,12.60
2019-02-27T20:26:58.350Z,12.60
2019-02-27T20:29:28.136Z,12.60
2019-02-27T20:31:57.957Z,12.50
2019-02-27T20:34:28.812Z,12.50
2019-02-27T20:36:58.684Z,12.50
2019-02-27T20:39:28.751Z,12.50
2019-02-27T20:41:58.548Z,12.50
2019-02-27T20:44:28.330Z,12.50
2019-02-27T20:46:58.144Z,12.50
2019-02-27T20:49:27.941Z,12.50
2019-02-27T20:51:57.771Z,12.40
2019-02-27T20:54:27.591Z,12.40
2019-02-27T20:56:57.429Z,12.30
2019-02-27T20:59:27.255Z,12.30
2019-02-27T21:01:57.035Z,12.20
2019-02-27T21:04:27.903Z,12.10
2019-02-27T21:06:57.709Z,12.10
2019-02-27T21:09:27.581Z,12.10
2019-02-27T21:11:57.373Z,12.10
2019-02-27T21:14:27.458Z,12.00
2019-02-27T21:16:57.353Z,12.00
2019-02-27T21:19:27.161Z,12.00
2019-02-27T21:21:57.025Z,12.00
2019-02-27T21:24:26.896Z,12.00
2019-02-27T21:26:57.279Z,11.90
2019-02-27T21:29:27.769Z,11.90
2019-02-27T21:31:58.298Z,11.90
2019-02-27T21:34:29.084Z,11.90
2019-02-27T21:36:58.885Z,11.90
2019-02-27T21:39:28.683Z,11.80
2019-02-27T21:41:58.519Z,11.70
2019-02-27T21:44:29.193Z,11.70
2019-02-27T21:46:59.638Z,11.60
2019-02-27T21:49:32.286Z,11.60
2019-02-27T21:52:00.947Z,11.60
2019-02-27T21:54:30.830Z,11.50
2019-02-27T21:57:00.626Z,11.60
2019-02-27T21:59:30.433Z,11.60
2019-02-27T22:02:00.246Z,11.60
2019-02-27T22:04:30.051Z,11.50
2019-02-27T22:06:59.861Z,11.50
2019-02-27T22:09:29.659Z,11.50
2019-02-27T22:12:01.118Z,11.50
2019-02-27T22:14:31.016Z,11.40
2019-02-27T22:17:01.557Z,11.40
2019-02-27T22:19:33.691Z,11.40
2019-02-27T22:22:05.331Z,11.40
2019-02-27T22:24:34.976Z,11.40
2019-02-27T22:27:04.783Z,11.30
2019-02-27T22:29:34.577Z,11.30
2019-02-27T22:32:04.456Z,11.30
2019-02-27T22:34:34.248Z,11.30
2019-02-27T22:37:04.060Z,11.20
2019-02-27T22:39:33.851Z,11.20
2019-02-27T22:42:03.662Z,11.10
2019-02-27T22:44:33.536Z,11.10
2019-02-27T22:47:03.407Z,11.10
2019-02-27T22:49:33.212Z,11.00
2019-02-27T22:52:03.007Z,11.00
2019-02-27T22:54:33.216Z,11.00
2019-02-27T22:57:04.309Z,11.00
2019-02-27T22:59:37.419Z,10.90
2019-02-27T23:02:05.928Z,10.90
2019-02-27T23:04:35.958Z,10.80
2019-02-27T23:07:05.808Z,10.80
2019-02-27T23:09:36.887Z,10.80
2019-02-27T23:12:08.562Z,10.70
2019-02-27T23:14:38.757Z,10.70
2019-02-27T23:17:08.560Z,10.70
2019-02-27T23:19:38.342Z,10.70
2019-02-27T23:22:10.105Z,10.60
2019-02-27T23:24:43.422Z,10.60
2019-02-27T23:27:11.386Z,10.60
2019-02-27T23:29:41.200Z,10.60
2019-02-27T23:32:11.168Z,10.60
2019-02-27T23:34:41.689Z,10.50
2019-02-27T23:37:12.308Z,10.50
2019-02-27T23:39:42.771Z,10.50
2019-02-27T23:42:13.457Z,10.50
2019-02-27T23:44:43.340Z,10.40
2019-02-27T23:47:13.144Z,10.50
2019-02-27T23:49:42.937Z,10.40
2019-02-27T23:52:12.742Z,10.40
2019-02-27T23:54:42.528Z,10.40
2019-02-27T23:57:12.340Z,10.40
2019-02-27T23:59:42.130Z,10.30
